createdAt,value
2019-02-06T00:01:33.314Z,-0.50
2019-02-06T00:04:15.490Z,-0.50
2019-02-06T00:06:56.647Z,-0.50
2019-02-06T00:09:37.512Z,-0.50
2019-02-06T00:12:06.636Z,-0.40
2019-02-06T00:14:54.780Z,-0.50
2019-02-06T00:17:35.977Z,-0.50
2019-02-06T00:20:16.745Z,-0.50
2019-02-06T00:22:57.817Z,-0.50
2019-02-06T00:25:38.530Z,-0.50
2019-02-06T00:28:19.244Z,-0.40
2019-02-06T00:31:00.476Z,-0.30
2019-02-06T00:33:41.317Z,-0.40
2019-02-06T00:36:22.503Z,-0.40
2019-02-06T00:39:04.521Z,-0.50
2019-02-06T00:41:45.587Z,-0.50
2019-02-06T00:44:26.138Z,-0.60
2019-02-06T00:47:07.677Z,-0.60
2019-02-06T00:49:48.604Z,-0.60
2019-02-06T00:52:29.332Z,-0.70
2019-02-06T00:55:10.085Z,-0.70
2019-02-06T00:57:51.069Z,-0.70
2019-02-06T01:00:31.894Z,-0.70
2019-02-06T01:03:12.780Z,-0.70
2019-02-06T01:05:53.976Z,-0.70
2019-02-06T01:08:34.510Z,-0.70
2019-02-06T01:11:16.077Z,-0.70
2019-02-06T01:13:56.688Z,-0.70
2019-02-06T01:16:38.160Z,-0.70
2019-02-06T01:19:19.316Z,-0.70
2019-02-06T01:22:00.278Z,-0.80
2019-02-06T01:24:41.020Z,-0.80
2019-02-06T01:27:21.885Z,-0.70
2019-02-06T01:30:02.731Z,-0.80
2019-02-06T01:32:43.228Z,-0.80
2019-02-06T01:35:24.072Z,-0.80
2019-02-06T01:38:04.869Z,-0.80
2019-02-06T01:40:45.809Z,-0.80
2019-02-06T01:43:27.437Z,-0.80
2019-02-06T01:46:08.317Z,-0.80
2019-02-06T01:48:49.089Z,-0.90
2019-02-06T01:51:29.688Z,-0.90
2019-02-06T01:54:10.823Z,-0.90
2019-02-06T01:56:51.979Z,-0.80
2019-02-06T01:59:32.900Z,-0.80
2019-02-06T02:02:13.929Z,-0.80
2019-02-06T02:04:54.824Z,-0.80
2019-02-06T02:07:39.450Z,-0.80
2019-02-06T02:10:20.929Z,-0.90
2019-02-06T02:13:01.688Z,-0.90
2019-02-06T02:15:42.604Z,-0.90
2019-02-06T02:18:23.524Z,-1.00
2019-02-06T02:21:04.477Z,-1.00
2019-02-06T02:23:45.306Z,-1.00
2019-02-06T02:26:26.285Z,-1.00
2019-02-06T02:29:07.148Z,-1.10
2019-02-06T02:31:48.000Z,-1.10
2019-02-06T02:34:28.926Z,-1.10
2019-02-06T02:37:09.975Z,-1.10
2019-02-06T02:39:39.012Z,-1.10
2019-02-06T02:42:27.177Z,-1.10
2019-02-06T02:48:17.272Z,-1.10
2019-02-06T02:50:57.994Z,-1.00
2019-02-06T02:53:38.916Z,-1.00
2019-02-06T02:56:19.737Z,-1.00
2019-02-06T02:59:00.449Z,-1.00
2019-02-06T03:02:06.495Z,-0.90
2019-02-06T03:04:39.659Z,-1.00
2019-02-06T03:07:27.903Z,-1.00
2019-02-06T03:10:09.923Z,-1.00
2019-02-06T03:12:50.652Z,-1.00
2019-02-06T03:15:31.584Z,-1.10
2019-02-06T03:18:12.525Z,-1.10
2019-02-06T03:20:53.241Z,-1.10
2019-02-06T03:23:34.516Z,-1.10
2019-02-06T03:26:15.477Z,-1.10
2019-02-06T03:28:55.917Z,-1.20
2019-02-06T03:31:39.449Z,-1.30
2019-02-06T03:34:19.832Z,-1.30
2019-02-06T03:37:00.685Z,-1.30
2019-02-06T03:39:41.624Z,-1.40
2019-02-06T03:42:22.420Z,-1.40
2019-02-06T03:45:03.389Z,-1.40
2019-02-06T03:47:43.993Z,-1.40
2019-02-06T03:50:24.560Z,-1.40
2019-02-06T03:52:53.693Z,-1.40
2019-02-06T03:55:41.768Z,-1.30
2019-02-06T03:58:22.718Z,-1.40
2019-02-06T04:01:03.715Z,-1.40
2019-02-06T04:03:44.737Z,-1.30
2019-02-06T04:06:25.565Z,-1.30
2019-02-06T04:09:06.421Z,-1.20
2019-02-06T04:11:47.424Z,-1.20
2019-02-06T04:14:28.371Z,-1.20
2019-02-06T04:17:09.246Z,-1.20
2019-02-06T04:19:50.128Z,-1.30
2019-02-06T04:22:30.542Z,-1.30
2019-02-06T04:25:11.201Z,-1.30
2019-02-06T04:27:52.044Z,-1.30
2019-02-06T04:30:32.856Z,-1.30
2019-02-06T04:33:13.483Z,-1.30
2019-02-06T04:35:54.316Z,-1.30
2019-02-06T04:38:35.013Z,-1.30
2019-02-06T04:41:04.160Z,-1.30
2019-02-06T04:43:52.301Z,-1.30
2019-02-06T04:46:40.464Z,-1.40
2019-02-06T04:49:21.673Z,-1.40
2019-02-06T04:51:50.758Z,-1.40
2019-02-06T04:54:40.638Z,-1.50
2019-02-06T04:57:21.162Z,-1.50
2019-02-06T05:00:01.945Z,-1.50
2019-02-06T05:02:42.523Z,-1.50
2019-02-06T05:05:23.563Z,-1.50
2019-02-06T05:08:04.671Z,-1.50
2019-02-06T05:10:45.664Z,-1.50
2019-02-06T05:13:26.615Z,-1.50
2019-02-06T05:16:07.297Z,-1.40
2019-02-06T05:18:48.199Z,-1.40
2019-02-06T05:21:29.297Z,-1.40
2019-02-06T05:24:10.201Z,-1.40
2019-02-06T05:26:51.164Z,-1.40
2019-02-06T05:29:32.020Z,-1.40
2019-02-06T05:32:00.983Z,-1.40
2019-02-06T05:34:49.155Z,-1.40
2019-02-06T05:37:37.328Z,-1.40
2019-02-06T05:40:18.520Z,-1.30
2019-02-06T05:42:59.309Z,-1.30
2019-02-06T05:45:40.648Z,-1.30
2019-02-06T05:48:21.519Z,-1.40
2019-02-06T05:51:02.372Z,-1.40
2019-02-06T05:53:43.475Z,-1.40
2019-02-06T05:56:24.222Z,-1.40
2019-02-06T05:59:06.006Z,-1.40
2019-02-06T06:01:35.123Z,-1.40
2019-02-06T06:04:23.354Z,-1.40
2019-02-06T06:10:11.813Z,-1.50
2019-02-06T06:12:52.786Z,-1.50
2019-02-06T06:15:33.569Z,-1.60
2019-02-06T06:18:14.258Z,-1.60
2019-02-06T06:20:55.088Z,-1.60
2019-02-06T06:23:36.438Z,-1.60
2019-02-06T06:26:17.138Z,-1.60
2019-02-06T06:28:58.034Z,-1.60
2019-02-06T06:31:38.781Z,-1.60
2019-02-06T06:34:19.603Z,-1.60
2019-02-06T06:37:00.308Z,-1.60
2019-02-06T06:39:42.145Z,-1.70
2019-02-06T06:42:24.200Z,-1.70
2019-02-06T06:45:05.396Z,-1.60
2019-02-06T06:47:46.115Z,-1.60
2019-02-06T06:50:27.151Z,-1.50
2019-02-06T06:53:08.305Z,-1.50
2019-02-06T06:55:49.603Z,-1.30
2019-02-06T06:58:18.657Z,-1.40
2019-02-06T07:00:59.003Z,-1.40
2019-02-06T07:03:40.504Z,-1.50
2019-02-06T07:06:21.380Z,-1.50
2019-02-06T07:09:02.208Z,-1.50
2019-02-06T07:11:43.896Z,-1.40
2019-02-06T07:14:24.835Z,-1.50
2019-02-06T07:17:05.573Z,-1.50
2019-02-06T07:19:46.370Z,-1.60
2019-02-06T07:22:27.574Z,-1.60
2019-02-06T07:25:08.246Z,-1.60
2019-02-06T07:27:49.124Z,-1.50
2019-02-06T07:30:29.876Z,-1.50
2019-02-06T07:33:10.660Z,-1.40
2019-02-06T07:35:51.533Z,-1.40
2019-02-06T07:38:32.606Z,-1.40
2019-02-06T07:41:13.440Z,-1.30
2019-02-06T07:43:54.643Z,-1.30
2019-02-06T07:46:35.411Z,-1.30
2019-02-06T07:49:16.344Z,-1.40
2019-02-06T07:51:57.368Z,-1.50
2019-02-06T07:54:38.195Z,-1.60
2019-02-06T07:57:18.968Z,-1.50
2019-02-06T08:00:00.618Z,-1.50
2019-02-06T08:05:21.475Z,-1.50
2019-02-06T08:08:01.864Z,-1.40
2019-02-06T08:10:42.617Z,-1.50
2019-02-06T08:13:23.763Z,-1.50
2019-02-06T08:16:07.304Z,-1.50
2019-02-06T08:18:47.362Z,-1.50
2019-02-06T08:21:28.134Z,-1.50
2019-02-06T08:23:57.165Z,-1.50
2019-02-06T08:26:45.349Z,-1.50
2019-02-06T08:29:33.560Z,-1.40
2019-02-06T08:32:14.849Z,-1.30
2019-02-06T08:34:55.929Z,-1.30
2019-02-06T08:37:37.196Z,-1.20
2019-02-06T08:40:18.100Z,-1.20
2019-02-06T08:42:58.530Z,-1.10
2019-02-06T08:45:38.995Z,-1.00
2019-02-06T08:48:19.942Z,-0.90
2019-02-06T08:51:00.448Z,-0.90
2019-02-06T08:53:41.470Z,-0.90
2019-02-06T08:56:22.100Z,-0.90
2019-02-06T08:59:02.752Z,-0.80
2019-02-06T09:01:43.246Z,-0.70
2019-02-06T09:04:24.063Z,-0.60
2019-02-06T09:07:04.814Z,-0.50
2019-02-06T09:09:45.424Z,-0.40
2019-02-06T09:12:26.592Z,-0.30
2019-02-06T09:15:07.399Z,-0.40
2019-02-06T09:17:47.968Z,-0.30
2019-02-06T09:20:28.897Z,-0.40
2019-02-06T09:23:09.544Z,-0.30
2019-02-06T09:25:50.137Z,-0.30
2019-02-06T09:28:31.083Z,-0.30
2019-02-06T09:31:11.852Z,-0.20
2019-02-06T09:33:52.661Z,-0.10
2019-02-06T09:36:33.565Z,-0.10
2019-02-06T09:39:14.029Z,-0.10
2019-02-06T09:41:54.802Z,-0.10
2019-02-06T09:44:35.548Z,-0.20
2019-02-06T09:47:16.607Z,-0.10
2019-02-06T09:49:57.647Z,0.00
2019-02-06T09:52:38.597Z,0.00
2019-02-06T09:55:19.362Z,0.00
2019-02-06T09:57:59.913Z,0.10
2019-02-06T10:00:40.488Z,0.20
2019-02-06T10:03:21.521Z,0.30
2019-02-06T10:06:02.266Z,0.40
2019-02-06T10:08:43.005Z,0.50
2019-02-06T10:11:26.824Z,0.60
2019-02-06T10:14:07.240Z,0.60
2019-02-06T10:16:48.064Z,0.50
2019-02-06T10:19:28.889Z,0.60
2019-02-06T10:21:58.085Z,0.60
2019-02-06T10:24:46.466Z,0.60
2019-02-06T10:27:36.249Z,0.60
2019-02-06T10:30:17.203Z,0.60
2019-02-06T10:32:57.921Z,0.50
2019-02-06T10:35:38.885Z,0.60
2019-02-06T10:38:19.500Z,0.70
2019-02-06T10:41:00.127Z,0.80
2019-02-06T10:43:41.040Z,0.90
2019-02-06T10:46:21.849Z,0.90
2019-02-06T10:49:02.910Z,0.90
2019-02-06T10:51:43.413Z,0.90
2019-02-06T10:54:24.205Z,0.80
2019-02-06T10:57:05.192Z,0.80
2019-02-06T10:59:45.753Z,0.70
2019-02-06T11:02:26.560Z,0.70
2019-02-06T11:05:07.431Z,0.70
2019-02-06T11:07:48.788Z,0.60
2019-02-06T11:10:29.233Z,0.70
2019-02-06T11:13:11.363Z,0.70
2019-02-06T11:15:51.808Z,0.60
2019-02-06T11:18:32.552Z,0.70
2019-02-06T11:21:13.429Z,0.80
2019-02-06T11:23:54.399Z,0.80
2019-02-06T11:26:35.216Z,0.90
2019-02-06T11:29:15.876Z,0.90
2019-02-06T11:31:56.736Z,1.00
2019-02-06T11:34:37.449Z,1.20
2019-02-06T11:37:18.165Z,1.30
2019-02-06T11:39:59.229Z,1.30
2019-02-06T11:42:40.094Z,1.20
2019-02-06T11:45:21.276Z,1.10
2019-02-06T11:48:02.066Z,1.10
2019-02-06T11:50:33.904Z,1.00
2019-02-06T11:53:26.271Z,1.00
2019-02-06T11:56:06.428Z,1.00
2019-02-06T11:58:47.308Z,1.10
2019-02-06T12:01:31.113Z,1.20
2019-02-06T12:04:11.534Z,1.30
2019-02-06T12:06:52.007Z,1.30
2019-02-06T12:09:32.673Z,1.40
2019-02-06T12:12:13.760Z,1.40
2019-02-06T12:14:54.283Z,1.40
2019-02-06T12:17:34.970Z,1.40
2019-02-06T12:20:16.604Z,1.30
2019-02-06T12:22:57.356Z,1.30
2019-02-06T12:25:38.308Z,1.20
2019-02-06T12:28:19.635Z,1.30
2019-02-06T12:31:00.625Z,1.40
2019-02-06T12:33:41.614Z,1.40
2019-02-06T12:36:23.305Z,1.40
2019-02-06T12:39:05.756Z,1.30
2019-02-06T12:41:46.852Z,1.30
2019-02-06T12:44:27.658Z,1.30
2019-02-06T12:47:08.405Z,1.30
2019-02-06T12:49:49.145Z,1.30
2019-02-06T12:52:30.236Z,1.40
2019-02-06T12:54:59.172Z,1.40
2019-02-06T12:57:47.476Z,1.40
2019-02-06T13:00:28.664Z,1.40
2019-02-06T13:03:09.855Z,1.40
2019-02-06T13:05:50.426Z,1.40
2019-02-06T13:08:31.541Z,1.30
2019-02-06T13:11:12.360Z,1.40
2019-02-06T13:13:53.510Z,1.40
2019-02-06T13:16:34.478Z,1.40
2019-02-06T13:19:15.461Z,1.40
2019-02-06T13:21:56.315Z,1.40
2019-02-06T13:24:37.129Z,1.40
2019-02-06T13:29:55.164Z,1.50
2019-02-06T13:32:35.734Z,1.50
2019-02-06T13:35:17.016Z,1.70
2019-02-06T13:37:57.902Z,1.70
2019-02-06T13:40:45.799Z,1.80
2019-02-06T13:43:21.483Z,1.70
2019-02-06T13:46:02.408Z,1.70
2019-02-06T13:48:43.177Z,1.60
2019-02-06T13:51:24.004Z,1.60
2019-02-06T13:54:04.836Z,1.60
2019-02-06T13:56:45.531Z,1.50
2019-02-06T13:59:26.530Z,1.60
2019-02-06T14:02:06.950Z,1.70
2019-02-06T14:04:48.252Z,1.80
2019-02-06T14:07:29.001Z,1.90
2019-02-06T14:10:10.116Z,1.90
2019-02-06T14:15:30.918Z,1.80
2019-02-06T14:18:11.956Z,1.90
2019-02-06T14:20:53.031Z,1.90
2019-02-06T14:23:34.627Z,1.90
2019-02-06T14:26:15.704Z,1.80
2019-02-06T14:28:57.036Z,1.80
2019-02-06T14:31:38.056Z,1.80
2019-02-06T14:34:18.956Z,1.90
2019-02-06T14:36:59.604Z,1.90
2019-02-06T14:39:40.309Z,2.00
2019-02-06T14:42:21.881Z,2.00
2019-02-06T14:45:03.197Z,2.10
2019-02-06T14:47:41.330Z,2.10
2019-02-06T14:50:49.462Z,2.00
2019-02-06T14:53:31.179Z,1.90
2019-02-06T14:56:13.951Z,1.90
2019-02-06T14:59:21.173Z,1.80
2019-02-06T15:02:01.553Z,1.70
2019-02-06T15:04:42.281Z,1.60
2019-02-06T15:07:23.077Z,1.50
2019-02-06T15:10:03.763Z,1.40
2019-02-06T15:13:12.293Z,1.30
2019-02-06T15:15:53.570Z,1.20
2019-02-06T15:21:14.963Z,1.10
2019-02-06T15:23:55.845Z,1.10
2019-02-06T15:26:36.729Z,1.10
2019-02-06T15:29:17.480Z,1.00
2019-02-06T15:31:58.356Z,0.80
2019-02-06T15:34:39.081Z,0.80
2019-02-06T15:37:20.276Z,0.80
2019-02-06T15:40:00.853Z,0.70
2019-02-06T15:42:43.513Z,0.70
2019-02-06T15:45:26.564Z,0.70
2019-02-06T15:48:07.461Z,0.70
2019-02-06T15:50:48.200Z,0.60
2019-02-06T15:53:55.519Z,0.60
2019-02-06T15:56:49.022Z,0.50
2019-02-06T15:59:30.154Z,0.50
2019-02-06T16:02:10.680Z,0.40
2019-02-06T16:05:13.626Z,0.40
2019-02-06T16:07:54.512Z,0.40
2019-02-06T16:10:35.350Z,0.40
2019-02-06T16:13:16.386Z,0.40
2019-02-06T16:15:57.879Z,0.40
2019-02-06T16:18:39.156Z,0.40
2019-02-06T16:21:53.163Z,0.30
2019-02-06T16:24:55.368Z,0.30
2019-02-06T16:27:36.182Z,0.20
2019-02-06T16:30:43.535Z,0.20
2019-02-06T16:33:24.757Z,0.20
2019-02-06T16:36:05.712Z,0.20
2019-02-06T16:38:46.124Z,0.20
2019-02-06T16:41:26.848Z,0.10
2019-02-06T16:44:07.531Z,0.10
2019-02-06T16:46:48.317Z,0.10
2019-02-06T16:49:28.946Z,0.10
2019-02-06T16:52:09.701Z,0.10
2019-02-06T16:54:50.651Z,0.10
2019-02-06T16:57:31.324Z,0.10
2019-02-06T17:00:11.937Z,0.10
2019-02-06T17:02:52.605Z,0.10
2019-02-06T17:05:33.492Z,0.10
2019-02-06T17:08:40.769Z,0.20
2019-02-06T17:11:21.532Z,0.20
2019-02-06T17:14:02.419Z,0.10
2019-02-06T17:16:43.129Z,0.10
2019-02-06T17:19:24.041Z,0.00
2019-02-06T17:22:04.794Z,0.00
2019-02-06T17:24:45.766Z,0.00
2019-02-06T17:27:26.745Z,0.00
2019-02-06T17:30:07.371Z,0.00
2019-02-06T17:32:48.184Z,0.00
2019-02-06T17:35:28.803Z,0.00
2019-02-06T17:38:36.100Z,0.00
2019-02-06T17:41:43.381Z,0.00
2019-02-06T17:44:50.645Z,0.00
2019-02-06T17:47:31.856Z,0.00
2019-02-06T17:50:42.442Z,-0.10
2019-02-06T17:53:51.456Z,-0.10
2019-02-06T17:56:20.610Z,-0.10
2019-02-06T17:59:10.491Z,-0.10
2019-02-06T18:01:51.310Z,-0.20
2019-02-06T18:04:32.274Z,-0.20
2019-02-06T18:07:13.617Z,-0.30
2019-02-06T18:09:54.636Z,-0.30
2019-02-06T18:12:35.937Z,-0.30
2019-02-06T18:15:16.956Z,-0.30
2019-02-06T18:17:57.706Z,-0.30
2019-02-06T18:20:38.504Z,-0.20
2019-02-06T18:23:19.527Z,-0.20
2019-02-06T18:26:00.180Z,-0.20
2019-02-06T18:28:41.498Z,-0.20
2019-02-06T18:31:22.360Z,-0.20
2019-02-06T18:34:02.954Z,-0.20
2019-02-06T18:36:43.421Z,-0.20
2019-02-06T18:39:24.322Z,-0.20
2019-02-06T18:41:53.416Z,-0.20
2019-02-06T18:44:41.558Z,-0.20
2019-02-06T18:47:21.897Z,-0.20
2019-02-06T18:50:03.176Z,-0.20
2019-02-06T18:52:44.001Z,-0.20
2019-02-06T18:55:24.848Z,-0.30
2019-02-06T18:57:54.261Z,-0.30
2019-02-06T19:00:42.478Z,-0.30
2019-02-06T19:03:26.501Z,-0.30
2019-02-06T19:06:06.644Z,-0.30
2019-02-06T19:08:47.614Z,-0.20
2019-02-06T19:11:28.294Z,-0.20
2019-02-06T19:14:09.340Z,-0.30
2019-02-06T19:16:50.959Z,-0.40
2019-02-06T19:19:32.020Z,-0.50
2019-02-06T19:22:13.433Z,-0.40
2019-02-06T19:24:53.964Z,-0.40
2019-02-06T19:27:34.619Z,-0.40
2019-02-06T19:30:15.412Z,-0.50
2019-02-06T19:32:56.122Z,-0.50
2019-02-06T19:35:37.026Z,-0.50
2019-02-06T19:38:17.928Z,-0.50
2019-02-06T19:40:58.611Z,-0.50
2019-02-06T19:43:39.274Z,-0.40
2019-02-06T19:46:20.188Z,-0.40
2019-02-06T19:49:01.012Z,-0.50
2019-02-06T19:51:41.803Z,-0.60
2019-02-06T19:54:23.146Z,-0.60
2019-02-06T19:57:04.572Z,-0.60
2019-02-06T19:59:46.103Z,-0.60
2019-02-06T20:02:27.114Z,-0.70
2019-02-06T20:05:07.987Z,-0.60
2019-02-06T20:07:48.718Z,-0.60
2019-02-06T20:10:29.511Z,-0.60
2019-02-06T20:13:14.159Z,-0.70
2019-02-06T20:15:53.230Z,-0.70
2019-02-06T20:18:38.065Z,-0.80
2019-02-06T20:21:07.128Z,-0.80
2019-02-06T20:23:55.321Z,-0.70
2019-02-06T20:26:36.603Z,-0.80
2019-02-06T20:29:17.594Z,-0.80
2019-02-06T20:31:58.448Z,-0.80
2019-02-06T20:34:39.301Z,-0.80
2019-02-06T20:37:19.995Z,-0.90
2019-02-06T20:45:19.713Z,-0.70
2019-02-06T20:48:00.357Z,-0.80
2019-02-06T20:50:41.348Z,-0.90
2019-02-06T20:53:22.177Z,-0.90
2019-02-06T20:56:03.538Z,-1.00
2019-02-06T20:58:44.816Z,-1.00
2019-02-06T21:01:25.484Z,-1.00
2019-02-06T21:04:06.673Z,-1.00
2019-02-06T21:06:47.400Z,-1.00
2019-02-06T21:09:28.056Z,-1.00
2019-02-06T21:11:57.130Z,-1.00
2019-02-06T21:14:45.348Z,-1.00
2019-02-06T21:17:27.749Z,-1.00
2019-02-06T21:19:56.836Z,-1.00
2019-02-06T21:22:45.008Z,-1.00
2019-02-06T21:25:33.178Z,-1.00
2019-02-06T21:28:14.452Z,-1.00
2019-02-06T21:30:55.768Z,-1.00
2019-02-06T21:33:36.591Z,-1.00
2019-02-06T21:36:17.464Z,-1.00
2019-02-06T21:38:58.056Z,-1.00
2019-02-06T21:41:39.668Z,-1.00
2019-02-06T21:44:20.434Z,-1.00
2019-02-06T21:46:49.508Z,-1.10
2019-02-06T21:49:37.662Z,-1.00
2019-02-06T21:52:18.769Z,-1.00
2019-02-06T21:54:59.480Z,-1.00
2019-02-06T21:57:40.298Z,-1.00
2019-02-06T22:00:21.378Z,-1.00
2019-02-06T22:03:02.398Z,-1.00
2019-02-06T22:05:43.250Z,-1.00
2019-02-06T22:08:24.305Z,-1.00
2019-02-06T22:11:05.119Z,-1.10
2019-02-06T22:13:54.880Z,-1.10
2019-02-06T22:16:28.780Z,-1.10
2019-02-06T22:19:10.002Z,-1.10
2019-02-06T22:21:50.872Z,-1.10
2019-02-06T22:24:31.874Z,-1.10
2019-02-06T22:27:12.780Z,-1.10
2019-02-06T22:29:53.907Z,-1.10
2019-02-06T22:32:35.234Z,-1.10
2019-02-06T22:35:16.057Z,-1.20
2019-02-06T22:37:57.121Z,-1.20
2019-02-06T22:40:37.772Z,-1.20
2019-02-06T22:43:18.724Z,-1.20
2019-02-06T22:46:00.065Z,-1.10
2019-02-06T22:48:29.181Z,-1.10
2019-02-06T22:51:17.409Z,-1.10
2019-02-06T22:53:58.460Z,-1.10
2019-02-06T22:56:41.153Z,-1.10
2019-02-06T22:59:21.708Z,-1.10
2019-02-06T23:02:02.748Z,-1.10
2019-02-06T23:04:43.641Z,-1.10
2019-02-06T23:07:27.940Z,-1.10
2019-02-06T23:10:09.124Z,-1.10
2019-02-06T23:12:49.980Z,-1.10
2019-02-06T23:15:30.622Z,-1.20
2019-02-06T23:18:11.324Z,-1.20
2019-02-06T23:20:52.333Z,-1.30
2019-02-06T23:23:33.464Z,-1.20
2019-02-06T23:26:14.451Z,-1.20
2019-02-06T23:29:24.234Z,-1.20
2019-02-06T23:32:12.456Z,-1.20
2019-02-06T23:34:53.744Z,-1.30
2019-02-06T23:37:34.576Z,-1.30
2019-02-06T23:40:14.988Z,-1.30
2019-02-06T23:42:55.902Z,-1.30
2019-02-06T23:45:37.468Z,-1.30
2019-02-06T23:48:17.837Z,-1.40
2019-02-06T23:50:58.496Z,-1.40
2019-02-06T23:53:39.292Z,-1.40
2019-02-06T23:56:20.158Z,-1.40
2019-02-06T23:59:01.129Z,-1.40
